| time (UTC) | temp F | wind direction | speed MPH | gust MPH | rain 1hr in | rain 24hr in | rain mn in | humidity % | barometer mb |
| 20260505160656 | 35 | 15 | 4.0 | 4.0 | 0.00 | 0.00 | 0.04 | 100 | 1013.5 |
| 20260505160156 | 35 | 5 | 4.0 | 4.0 | 0.00 | 0.00 | 0.04 | 100 | 1013.5 |
| 20260505152656 | 35 | 359 | 4.0 | 4.0 | 0.00 | 0.00 | 0.04 | 100 | 1013.9 |
| 20260505152156 | 35 | 25 | 5.0 | 5.0 | 0.00 | 0.00 | 0.04 | 100 | 1013.9 |
| 20260505150656 | 35 | 3 | 5.0 | 5.0 | 0.00 | 0.00 | 0.04 | 100 | 1013.9 |
| 20260505150157 | 35 | 3 | 5.0 | 5.0 | 0.00 | 0.00 | 0.04 | 100 | 1013.9 |
| 20260505124156 | 36 | 339 | 5.0 | 5.0 | 0.03 | 0.00 | 0.03 | 99 | 1012.9 |
| 20260505123156 | 36 | 344 | 6.0 | 6.0 | 0.03 | 0.00 | 0.03 | 99 | 1012.9 |
| 20260505121157 | 36 | 359 | 8.0 | 8.0 | 0.03 | 0.00 | 0.04 | 98 | 1012.9 |
| 20260505120156 | 37 | 0 | 8.0 | 8.0 | 0.02 | 0.00 | 0.03 | 98 | 1012.5 |
| 20260505115656 | 37 | 1 | 8.0 | 8.0 | 0.01 | 0.00 | 0.02 | 98 | 1012.5 |
| 20260505113655 | 38 | 9 | 10.0 | 10.0 | 0.00 | 0.00 | 0.00 | 97 | 1012.2 |
| 20260505112657 | 39 | 3 | 10.0 | 10.0 | 0.00 | 0.00 | 0.00 | 96 | 1012.2 |
| 20260505112156 | 39 | 0 | 11.0 | 11.0 | 0.00 | 0.00 | 0.00 | 95 | 1012.2 |
| 20260505111156 | 39 | 3 | 11.0 | 11.0 | 0.00 | 0.00 | 0.00 | 95 | 1011.9 |
| 20260505110156 | 40 | 1 | 10.0 | 10.0 | 0.00 | 0.00 | 0.00 | 96 | 1011.9 |
| 20260505102156 | 41 | 357 | 8.0 | 8.0 | 0.00 | 0.00 | 0.00 | 97 | 1010.8 |
| 20260505101656 | 41 | 4 | 8.0 | 8.0 | 0.00 | 0.00 | 0.00 | 97 | 1010.8 |
| 20260505100656 | 42 | 1 | 7.0 | 7.0 | 0.00 | 0.00 | 0.00 | 95 | 1010.5 |
| 20260505095655 | 42 | 0 | 6.0 | 6.0 | 0.00 | 0.00 | 0.00 | 94 | 1010.8 |
| 20260505093156 | 43 | 350 | 5.0 | 5.0 | 0.00 | 0.00 | 0.00 | 95 | 1010.8 |
| 20260505091155 | 46 | 14 | 3.0 | 3.0 | 0.00 | 0.00 | 0.00 | 97 | 1010.8 |
| 20260505090656 | 46 | 6 | 3.0 | 3.0 | 0.00 | 0.00 | 0.00 | 97 | 1010.8 |
| 20260505085656 | 46 | 4 | 3.0 | 3.0 | 0.00 | 0.00 | 0.00 | 97 | 1010.8 |
| 20260505084656 | 45 | 10 | 2.0 | 2.0 | 0.00 | 0.00 | 0.00 | 97 | 1010.8 |
| 20260505084155 | 45 | 13 | 1.0 | 1.0 | 0.00 | 0.00 | 0.00 | 97 | 1010.8 |
| 20260505082655 | 45 | 20 | 1.0 | 1.0 | 0.00 | 0.00 | 0.00 | 97 | 1010.8 |
| 20260505081656 | 46 | 356 | 1.0 | 1.0 | 0.00 | 0.00 | 0.00 | 97 | 1010.8 |
| 20260505080657 | 46 | 314 | 1.0 | 1.0 | 0.00 | 0.00 | 0.00 | 97 | 1010.8 |
| 20260505080156 | 46 | 67 | 1.0 | 1.0 | 0.00 | 0.00 | 0.00 | 97 | 1010.8 |
| 20260505075156 | 46 | 166 | 2.0 | 2.0 | 0.00 | 0.00 | 0.00 | 97 | 1010.8 |
| 20260505074156 | 46 | 173 | 2.0 | 2.0 | 0.00 | 0.00 | 0.00 | 97 | 1011.2 |
| 20260505073155 | 46 | 156 | 2.0 | 2.0 | 0.00 | 0.00 | 0.00 | 97 | 1011.2 |
| 20260505072656 | 46 | 160 | 2.0 | 2.0 | 0.00 | 0.00 | 0.00 | 97 | 1011.2 |
| 20260505071655 | 46 | 326 | 3.0 | 3.0 | 0.00 | 0.00 | 0.00 | 96 | 1011.5 |
| 20260505071155 | 46 | 186 | 3.0 | 3.0 | 0.00 | 0.00 | 0.00 | 96 | 1011.5 |
| 20260505070155 | 46 | 162 | 3.0 | 3.0 | 0.00 | 0.00 | 0.00 | 96 | 1011.5 |
| 20260505065157 | 46 | 145 | 3.0 | 3.0 | 0.00 | 0.00 | 0.00 | 95 | 1011.5 |
| 20260505063156 | 46 | 116 | 3.0 | 3.0 | 0.00 | 0.00 | 0.00 | 94 | 1011.5 |
| 20260505062656 | 46 | 135 | 3.0 | 3.0 | 0.00 | 0.00 | 0.00 | 94 | 1011.5 |
| 20260505062155 | 46 | 150 | 3.0 | 3.0 | 0.00 | 0.00 | 0.00 | 94 | 1011.5 |
| 20260505061155 | 46 | 195 | 2.0 | 2.0 | 0.00 | 0.00 | 0.14 | 94 | 1011.5 |
| 20260505060156 | 46 | 184 | 2.0 | 2.0 | 0.00 | 0.00 | 0.14 | 94 | 1011.5 |
| 20260505055155 | 46 | 139 | 1.0 | 1.0 | 0.00 | 0.00 | 0.14 | 94 | 1011.9 |
| 20260505054156 | 46 | 134 | 1.0 | 1.0 | 0.00 | 0.00 | 0.14 | 94 | 1011.5 |
| 20260505053655 | 46 | 290 | 1.0 | 1.0 | 0.00 | 0.00 | 0.14 | 94 | 1011.5 |
| 20260505052655 | 46 | 282 | 1.0 | 1.0 | 0.01 | 0.00 | 0.15 | 93 | 1011.5 |
| 20260505051655 | 46 | 212 | 1.0 | 1.0 | 0.02 | 0.00 | 0.15 | 93 | 1011.9 |
| 20260505050655 | 46 | 329 | 2.0 | 2.0 | 0.03 | 0.00 | 0.15 | 93 | 1011.9 |
| 20260505041656 | 46 | 32 | 5.0 | 5.0 | 0.11 | 0.00 | 0.13 | 91 | 1012.2 |
| 20260505040155 | 47 | 5 | 5.0 | 5.0 | 0.09 | 0.00 | 0.12 | 90 | 1011.9 |
| 20260505034155 | 48 | 352 | 5.0 | 5.0 | 0.05 | 0.00 | 0.08 | 87 | 1011.9 |
| 20260505033155 | 48 | 352 | 5.0 | 5.0 | 0.03 | 0.00 | 0.06 | 83 | 1011.9 |
| 20260505025655 | 52 | 322 | 1.0 | 1.0 | 0.00 | 0.00 | 0.02 | 68 | 1010.8 |
| 20260505025155 | 52 | 349 | 1.0 | 1.0 | 0.00 | 0.00 | 0.02 | 65 | 1010.8 |
| 20260505024155 | 52 | 222 | 1.0 | 1.0 | 0.00 | 0.00 | 0.02 | 64 | 1010.5 |
| 20260505023155 | 51 | 85 | 1.0 | 1.0 | 0.00 | 0.00 | 0.02 | 67 | 1010.2 |
| 20260505022655 | 52 | 24 | 1.0 | 1.0 | 0.00 | 0.00 | 0.02 | 67 | 1010.5 |
| 20260505021655 | 51 | 100 | 1.0 | 1.0 | 0.00 | 0.00 | 0.02 | 67 | 1010.2 |
| 20260505020155 | 52 | 4 | 1.0 | 1.0 | 0.00 | 0.00 | 0.02 | 69 | 1010.2 |
| 20260505015655 | 52 | 346 | 2.0 | 2.0 | 0.01 | 0.00 | 0.02 | 70 | 1010.5 |
| 20260505015155 | 52 | 4 | 2.0 | 2.0 | 0.01 | 0.00 | 0.02 | 69 | 1010.2 |
| 20260505014155 | 52 | 0 | 2.0 | 2.0 | 0.01 | 0.00 | 0.02 | 70 | 1010.2 |
| 20260505013655 | 52 | 1 | 3.0 | 3.0 | 0.01 | 0.00 | 0.02 | 68 | 1010.2 |
| 20260505012655 | 52 | 349 | 3.0 | 3.0 | 0.01 | 0.00 | 0.01 | 66 | 1010.2 |
| 20260505011655 | 53 | 351 | 4.0 | 4.0 | 0.01 | 0.00 | 0.01 | 67 | 1010.2 |
| 20260505011155 | 53 | 357 | 4.0 | 4.0 | 0.01 | 0.00 | 0.02 | 67 | 1010.2 |
| 20260505010655 | 53 | 11 | 4.0 | 4.0 | 0.01 | 0.00 | 0.02 | 67 | 1010.2 |
| 20260505010155 | 53 | 8 | 4.0 | 4.0 | 0.01 | 0.00 | 0.01 | 66 | 1010.2 |
| 20260505005655 | 53 | 2 | 4.0 | 4.0 | 0.01 | 0.00 | 0.01 | 65 | 1010.2 |
| 20260505004655 | 53 | 315 | 6.0 | 6.0 | 0.01 | 0.00 | 0.01 | 66 | 1010.2 |
| 20260505003655 | 55 | 335 | 6.0 | 6.0 | 0.01 | 0.00 | 0.01 | 61 | 1010.2 |
| 20260505003156 | 56 | 333 | 6.0 | 6.0 | 0.00 | 0.00 | 0.01 | 57 | 1010.2 |
| 20260505002155 | 57 | 339 | 7.0 | 7.0 | 0.00 | 0.00 | 0.00 | 51 | 1010.2 |
| 20260505001154 | 57 | 359 | 7.0 | 7.0 | 0.00 | 0.00 | 0.00 | 49 | 1009.5 |
| 20260505000655 | 57 | 358 | 7.0 | 7.0 | 0.00 | 0.00 | 0.00 | 51 | 1009.1 |
| 20260505000154 | 57 | 344 | 7.0 | 7.0 | 0.00 | 0.00 | 0.00 | 49 | 1009.1 |
| 20260504235155 | 57 | 347 | 7.0 | 7.0 | 0.00 | 0.00 | 0.00 | 48 | 1008.8 |
| 20260504234154 | 58 | 354 | 8.0 | 8.0 | 0.00 | 0.00 | 0.00 | 49 | 1008.8 |
| 20260504232654 | 59 | 354 | 9.0 | 9.0 | 0.00 | 0.00 | 0.00 | 44 | 1008.5 |
| 20260504232154 | 59 | 356 | 9.0 | 9.0 | 0.00 | 0.00 | 0.00 | 41 | 1008.5 |
| 20260504230655 | 59 | 357 | 10.0 | 10.0 | 0.00 | 0.00 | 0.00 | 41 | 1008.5 |
| 20260504230154 | 59 | 355 | 10.0 | 10.0 | 0.00 | 0.00 | 0.00 | 41 | 1008.5 |
| 20260504225654 | 60 | 354 | 9.0 | 9.0 | 0.00 | 0.00 | 0.00 | 41 | 1008.5 |
| 20260504223654 | 61 | 354 | 6.0 | 6.0 | 0.00 | 0.00 | 0.00 | 39 | 1008.5 |
| 20260504222654 | 61 | 358 | 7.0 | 7.0 | 0.00 | 0.00 | 0.00 | 38 | 1008.1 |
| 20260504221655 | 65 | 38 | 4.0 | 4.0 | 0.00 | 0.00 | 0.00 | 29 | 1007.8 |
| 20260504221154 | 65 | 38 | 4.0 | 4.0 | 0.00 | 0.00 | 0.00 | 29 | 1007.8 |
| 20260504220654 | 65 | 32 | 4.0 | 4.0 | 0.00 | 0.00 | 0.00 | 29 | 1007.8 |
| 20260504215654 | 65 | 50 | 4.0 | 4.0 | 0.00 | 0.00 | 0.00 | 29 | 1007.8 |
| 20260504214655 | 64 | 354 | 4.0 | 4.0 | 0.00 | 0.00 | 0.00 | 31 | 1007.8 |
| 20260504214154 | 64 | 48 | 5.0 | 5.0 | 0.00 | 0.00 | 0.00 | 31 | 1007.8 |
| 20260504213654 | 64 | 27 | 5.0 | 5.0 | 0.00 | 0.00 | 0.00 | 31 | 1007.8 |
| 20260504212654 | 64 | 63 | 6.0 | 6.0 | 0.00 | 0.00 | 0.00 | 32 | 1008.1 |
| 20260504211655 | 64 | 26 | 6.0 | 6.0 | 0.00 | 0.00 | 0.00 | 32 | 1008.1 |
| 20260504211154 | 64 | 24 | 7.0 | 7.0 | 0.00 | 0.00 | 0.00 | 32 | 1008.1 |
| 20260504210154 | 65 | 357 | 8.0 | 8.0 | 0.00 | 0.00 | 0.00 | 33 | 1008.1 |
| 20260504205654 | 65 | 357 | 8.0 | 8.0 | 0.00 | 0.00 | 0.00 | 33 | 1008.1 |
| 20260504204655 | 64 | 342 | 8.0 | 8.0 | 0.00 | 0.00 | 0.00 | 34 | 1008.5 |
| 20260504203654 | 63 | 14 | 9.0 | 9.0 | 0.00 | 0.00 | 0.00 | 34 | 1008.8 |
| 20260504203154 | 63 | 0 | 8.0 | 8.0 | 0.00 | 0.00 | 0.00 | 34 | 1008.8 |
| 20260504202654 | 63 | 359 | 8.0 | 8.0 | 0.00 | 0.00 | 0.00 | 34 | 1008.8 |
| 20260504201655 | 63 | 350 | 8.0 | 8.0 | 0.00 | 0.00 | 0.00 | 34 | 1009.1 |
| 20260504200654 | 63 | 350 | 8.0 | 8.0 | 0.00 | 0.00 | 0.00 | 35 | 1008.8 |
| 20260504194655 | 63 | 8 | 8.0 | 8.0 | 0.00 | 0.00 | 0.00 | 34 | 1008.8 |
| 20260504194155 | 63 | 6 | 9.0 | 9.0 | 0.00 | 0.00 | 0.00 | 35 | 1008.8 |
| 20260504193654 | 63 | 346 | 9.0 | 9.0 | 0.00 | 0.00 | 0.00 | 34 | 1008.8 |
| 20260504193154 | 62 | 347 | 9.0 | 9.0 | 0.00 | 0.00 | 0.00 | 35 | 1008.8 |
| 20260504191654 | 60 | 359 | 9.0 | 9.0 | 0.00 | 0.00 | 0.00 | 37 | 1008.5 |
| 20260504190154 | 61 | 359 | 6.0 | 6.0 | 0.00 | 0.00 | 0.00 | 36 | 1008.8 |
| 20260504185154 | 63 | 235 | 6.0 | 6.0 | 0.00 | 0.00 | 0.00 | 35 | 1009.5 |
| 20260504184655 | 64 | 197 | 5.0 | 5.0 | 0.00 | 0.00 | 0.00 | 31 | 1009.1 |
| 20260504183654 | 64 | 173 | 5.0 | 5.0 | 0.00 | 0.00 | 0.00 | 29 | 1009.1 |
| 20260504182654 | 65 | 139 | 4.0 | 4.0 | 0.00 | 0.00 | 0.00 | 26 | 1008.5 |
| 20260504182154 | 65 | 139 | 4.0 | 4.0 | 0.00 | 0.00 | 0.00 | 26 | 1008.5 |
| 20260504180656 | 66 | 98 | 4.0 | 4.0 | 0.00 | 0.00 | 0.00 | 25 | 1008.5 |
| 20260504180154 | 66 | 355 | 4.0 | 4.0 | 0.00 | 0.00 | 0.00 | 26 | 1008.5 |
| 20260504175655 | 66 | 5 | 4.0 | 4.0 | 0.00 | 0.00 | 0.00 | 26 | 1008.5 |
| 20260504175154 | 66 | 5 | 4.0 | 4.0 | 0.00 | 0.00 | 0.00 | 26 | 1008.5 |
| 20260504173155 | 67 | 46 | 4.0 | 4.0 | 0.00 | 0.00 | 0.00 | 26 | 1008.5 |
| 20260504172655 | 67 | 36 | 4.0 | 4.0 | 0.00 | 0.00 | 0.00 | 26 | 1008.5 |
| 20260504171655 | 68 | 341 | 4.0 | 4.0 | 0.00 | 0.00 | 0.00 | 27 | 1008.8 |
| 20260504171154 | 67 | 57 | 4.0 | 4.0 | 0.00 | 0.00 | 0.00 | 26 | 1008.8 |